createdAt,value
2019-01-19T00:01:08.354Z,100396.56
2019-01-19T00:03:40.856Z,100391.79
2019-01-19T00:06:13.380Z,100399.41
2019-01-19T00:08:41.096Z,100396.34
2019-01-19T00:11:29.153Z,100400.97
2019-01-19T00:13:58.754Z,100403.13
2019-01-19T00:16:31.627Z,100406.67
2019-01-19T00:19:18.052Z,100410.95
2019-01-19T00:21:51.063Z,100401.62
2019-01-19T00:24:37.278Z,100410.13
2019-01-19T00:27:23.652Z,100405.84
2019-01-19T00:30:02.751Z,100405.84
2019-01-19T00:32:53.883Z,100398.95
2019-01-19T00:35:38.788Z,100399.69
2019-01-19T00:38:08.672Z,100400.52
2019-01-19T00:41:02.493Z,100406.91
2019-01-19T00:43:29.390Z,100401.28
2019-01-19T00:45:59.145Z,100409.80
2019-01-19T00:48:28.884Z,100407.67
2019-01-19T00:51:04.777Z,100413.63
2019-01-19T00:53:37.330Z,100412.84
2019-01-19T00:56:40.374Z,100409.91
2019-01-19T00:59:10.099Z,100407.84
2019-01-19T01:01:48.647Z,100406.51
2019-01-19T01:04:24.147Z,100409.41
2019-01-19T01:07:03.171Z,100416.56
2019-01-19T01:09:50.197Z,100415.28
2019-01-19T01:12:26.155Z,100414.06
2019-01-19T01:15:13.779Z,100413.63
2019-01-19T01:17:41.178Z,100417.47
2019-01-19T01:20:29.144Z,100418.62
2019-01-19T01:22:59.108Z,100419.91
2019-01-19T01:25:37.798Z,100425.08
2019-01-19T01:28:22.617Z,100423.86
2019-01-19T01:30:58.345Z,100420.91
2019-01-19T01:33:43.255Z,100411.95
2019-01-19T01:36:27.897Z,100411.56
2019-01-19T01:39:12.494Z,100410.63
2019-01-19T01:41:48.031Z,100411.08
2019-01-19T01:44:39.124Z,100412.78
2019-01-19T01:47:20.825Z,100416.13
2019-01-19T01:49:53.518Z,100422.63
2019-01-19T01:52:47.251Z,100411.56
2019-01-19T01:55:19.954Z,100414.13
2019-01-19T01:57:49.690Z,100417.95
2019-01-19T02:00:19.429Z,100414.13
2019-01-19T02:02:58.344Z,100415.80
2019-01-19T02:05:30.792Z,100418.74
2019-01-19T02:08:09.447Z,100417.47
2019-01-19T02:10:39.145Z,100415.34
2019-01-19T02:13:21.214Z,100411.91
2019-01-19T02:15:53.696Z,100415.28
2019-01-19T02:18:29.005Z,100409.69
2019-01-19T02:21:01.777Z,100407.13
2019-01-19T02:24:00.571Z,100406.28
2019-01-19T02:26:36.311Z,100404.58
2019-01-19T02:29:09.326Z,100398.62
2019-01-19T02:31:44.605Z,100390.18
2019-01-19T02:34:32.584Z,100394.47
2019-01-19T02:37:14.009Z,100397.02
2019-01-19T02:39:58.733Z,100397.02
2019-01-19T02:42:31.185Z,100397.51
2019-01-19T02:45:20.514Z,100393.67
2019-01-19T02:47:50.229Z,100396.63
2019-01-19T02:50:23.302Z,100391.91
2019-01-19T02:52:56.034Z,100388.56
2019-01-19T02:55:38.605Z,100379.19
2019-01-19T02:58:20.192Z,100389.47
2019-01-19T03:00:52.951Z,100395.85
2019-01-19T03:03:25.472Z,100394.23
2019-01-19T03:05:58.371Z,100398.47
2019-01-19T03:08:40.214Z,100402.02
2019-01-19T03:11:12.934Z,100404.97
2019-01-19T03:14:05.192Z,100413.01
2019-01-19T03:16:46.722Z,100418.17
2019-01-19T03:19:48.147Z,100425.84
2019-01-19T03:22:23.873Z,100416.02
2019-01-19T03:25:11.493Z,100413.52
2019-01-19T03:27:44.129Z,100412.63
2019-01-19T03:30:40.735Z,100413.91
2019-01-19T03:33:19.619Z,100413.06
2019-01-19T03:36:04.347Z,100409.68
2019-01-19T03:38:39.079Z,100410.62
2019-01-19T03:41:08.768Z,100417.89
2019-01-19T03:43:55.567Z,100421.30
2019-01-19T03:46:52.148Z,100419.62
2019-01-19T03:49:27.733Z,100424.78
2019-01-19T03:52:12.367Z,100422.63
2019-01-19T03:55:03.568Z,100429.02
2019-01-19T03:57:38.902Z,100426.89
2019-01-19T04:00:14.274Z,100428.17
2019-01-19T04:03:00.729Z,100426.01
2019-01-19T04:05:46.969Z,100426.01
2019-01-19T04:08:19.471Z,100428.62
2019-01-19T04:10:49.414Z,100423.06
2019-01-19T04:13:33.497Z,100419.28
2019-01-19T04:16:15.398Z,100417.17
2019-01-19T04:19:00.126Z,100415.89
2019-01-19T04:21:45.233Z,100419.33
2019-01-19T04:24:17.967Z,100416.23
2019-01-19T04:26:44.385Z,100417.57
2019-01-19T04:29:10.670Z,100428.73
2019-01-19T04:31:36.662Z,100422.80
2019-01-19T04:34:03.291Z,100417.68
2019-01-19T04:36:30.065Z,100423.33
2019-01-19T04:38:56.353Z,100421.62
2019-01-19T04:41:22.273Z,100426.68
2019-01-19T04:43:48.504Z,100425.41
2019-01-19T04:46:14.534Z,100423.67
2019-01-19T04:48:40.739Z,100423.67
2019-01-19T04:51:07.038Z,100419.44
2019-01-19T04:53:33.069Z,100418.95
2019-01-19T04:55:59.274Z,100415.18
2019-01-19T04:58:25.590Z,100416.45
2019-01-19T05:00:51.714Z,100413.50
2019-01-19T05:03:17.776Z,100417.34
2019-01-19T05:05:43.929Z,100423.84
2019-01-19T05:08:09.969Z,100419.61
2019-01-19T05:10:36.021Z,100419.23
2019-01-19T05:13:02.394Z,100419.72
2019-01-19T05:15:28.430Z,100418.44
2019-01-19T05:17:55.407Z,100418.00
2019-01-19T05:20:21.607Z,100413.37
2019-01-19T05:22:47.656Z,100415.11
2019-01-19T05:25:13.701Z,100414.71
2019-01-19T05:27:39.947Z,100418.11
2019-01-19T05:30:09.709Z,100413.48
2019-01-19T05:32:36.002Z,100409.22
2019-01-19T05:35:02.964Z,100412.66
2019-01-19T05:37:29.014Z,100404.16
2019-01-19T05:39:54.991Z,100412.31
2019-01-19T05:42:21.168Z,100406.72
2019-01-19T05:44:47.157Z,100390.88
2019-01-19T05:47:13.240Z,100392.10
2019-01-19T05:49:39.343Z,100390.82
2019-01-19T05:52:05.359Z,100383.60
2019-01-19T05:54:31.269Z,100388.31
2019-01-19T05:56:57.305Z,100385.36
2019-01-19T05:59:23.207Z,100391.75
2019-01-19T06:01:49.215Z,100381.53
2019-01-19T06:04:15.389Z,100384.19
2019-01-19T06:06:46.606Z,100385.04
2019-01-19T06:09:09.137Z,100382.53
2019-01-19T06:11:35.531Z,100379.53
2019-01-19T06:14:01.895Z,100379.53
2019-01-19T06:16:27.794Z,100382.09
2019-01-19T06:18:54.289Z,100381.20
2019-01-19T06:21:23.504Z,100380.36
2019-01-19T06:23:49.555Z,100380.81
2019-01-19T06:26:15.810Z,100383.36
2019-01-19T06:28:41.716Z,100385.04
2019-01-19T06:31:07.814Z,100387.65
2019-01-19T06:33:34.041Z,100388.53
2019-01-19T06:36:00.063Z,100390.74
2019-01-19T06:38:26.212Z,100389.52
2019-01-19T06:40:52.300Z,100387.36
2019-01-19T06:43:18.246Z,100391.14
2019-01-19T06:45:44.188Z,100407.66
2019-01-19T06:48:10.449Z,100395.98
2019-01-19T06:50:36.496Z,100389.14
2019-01-19T06:53:02.619Z,100386.05
2019-01-19T06:55:29.057Z,100378.81
2019-01-19T06:57:55.171Z,100377.53
2019-01-19T07:00:21.290Z,100375.83
2019-01-19T07:02:47.519Z,100372.81
2019-01-19T07:05:13.614Z,100369.76
2019-01-19T07:07:39.664Z,100367.20
2019-01-19T07:10:19.949Z,100369.76
2019-01-19T07:12:46.032Z,100359.53
2019-01-19T07:15:12.779Z,100348.50
2019-01-19T07:17:38.993Z,100351.27
2019-01-19T07:20:08.626Z,100350.88
2019-01-19T07:22:34.590Z,100339.38
2019-01-19T07:25:00.683Z,100335.14
2019-01-19T07:27:26.692Z,100332.16
2019-01-19T07:29:52.681Z,100330.82
2019-01-19T07:32:18.960Z,100330.77
2019-01-19T07:34:44.946Z,100329.04
2019-01-19T07:37:11.093Z,100340.15
2019-01-19T07:39:37.261Z,100340.15
2019-01-19T07:42:03.387Z,100345.66
2019-01-19T07:44:29.335Z,100351.16
2019-01-19T07:46:56.418Z,100352.34
2019-01-19T07:49:22.341Z,100352.23
2019-01-19T07:51:48.440Z,100356.45
2019-01-19T07:54:14.744Z,100359.50
2019-01-19T07:56:40.672Z,100358.67
2019-01-19T07:59:06.669Z,100304.76
2019-01-19T08:01:32.672Z,100368.21
2019-01-19T08:03:58.705Z,100378.88
2019-01-19T08:06:24.756Z,100376.28
2019-01-19T08:08:50.854Z,100371.56
2019-01-19T08:11:16.858Z,100374.94
2019-01-19T08:13:42.897Z,100374.94
2019-01-19T08:16:09.083Z,100363.89
2019-01-19T08:18:35.138Z,100367.78
2019-01-19T08:21:01.193Z,100362.72
2019-01-19T08:23:27.459Z,100347.77
2019-01-19T08:25:53.625Z,100341.83
2019-01-19T08:28:19.624Z,100337.11
2019-01-19T08:30:45.985Z,100333.76
2019-01-19T08:33:12.004Z,100329.98
2019-01-19T08:35:38.320Z,100331.25
2019-01-19T08:38:04.701Z,100340.15
2019-01-19T08:40:33.216Z,100348.55
2019-01-19T08:43:03.828Z,100349.38
2019-01-19T08:45:30.428Z,100342.65
2019-01-19T08:47:56.938Z,100339.77
2019-01-19T08:50:23.011Z,100338.59
2019-01-19T08:52:49.230Z,100339.58
2019-01-19T08:55:15.273Z,100332.02
2019-01-19T08:57:41.333Z,100325.73
2019-01-19T09:00:11.297Z,100328.84
2019-01-19T09:02:37.434Z,100325.94
2019-01-19T09:05:06.162Z,100325.21
2019-01-19T09:07:33.877Z,100325.34
2019-01-19T09:10:00.242Z,100321.95
2019-01-19T09:12:26.201Z,100327.12
2019-01-19T09:14:52.392Z,100328.91
2019-01-19T09:17:18.339Z,100335.00
2019-01-19T09:19:44.361Z,100344.05
2019-01-19T09:22:10.477Z,100328.86
2019-01-19T09:24:36.439Z,100320.00
2019-01-19T09:27:02.659Z,100316.68
2019-01-19T09:29:28.829Z,100314.27
2019-01-19T09:31:54.846Z,100306.30
2019-01-19T09:34:20.882Z,100297.04
2019-01-19T09:36:47.152Z,100298.46
2019-01-19T09:39:13.144Z,100284.93
2019-01-19T09:41:39.298Z,100280.79
2019-01-19T09:44:05.569Z,100281.76
2019-01-19T09:46:31.710Z,100291.22
2019-01-19T09:48:57.823Z,100291.27
2019-01-19T09:51:24.093Z,100287.87
2019-01-19T09:53:50.097Z,100287.91
2019-01-19T09:56:16.282Z,100285.00
2019-01-19T09:58:42.463Z,100277.46
2019-01-19T10:01:08.566Z,100269.92
2019-01-19T10:03:34.749Z,100278.22
2019-01-19T10:06:00.860Z,100272.35
2019-01-19T10:08:26.922Z,100279.81
2019-01-19T10:10:53.139Z,100268.42
2019-01-19T10:13:19.435Z,100267.67
2019-01-19T10:15:45.374Z,100249.03
2019-01-19T10:18:11.578Z,100255.97
2019-01-19T10:20:37.685Z,100260.83
2019-01-19T10:23:03.724Z,100251.11
2019-01-19T10:25:29.880Z,100243.95
2019-01-19T10:27:56.139Z,100240.28
2019-01-19T10:30:29.167Z,100241.23
2019-01-19T10:32:55.305Z,100235.84
2019-01-19T10:35:21.861Z,100235.59
2019-01-19T10:37:47.949Z,100231.00
2019-01-19T10:40:17.618Z,100237.09
2019-01-19T10:42:43.901Z,100227.77
2019-01-19T10:45:24.796Z,100223.63
2019-01-19T10:47:51.111Z,100231.48
2019-01-19T10:50:17.322Z,100219.14
2019-01-19T10:52:43.580Z,100225.78
2019-01-19T10:55:12.265Z,100229.31
2019-01-19T10:57:38.283Z,100225.58
2019-01-19T11:00:14.145Z,100230.86
2019-01-19T11:02:40.288Z,100229.73
2019-01-19T11:05:10.331Z,100233.77
2019-01-19T11:07:36.821Z,100227.91
2019-01-19T11:10:06.549Z,100227.13
2019-01-19T11:12:32.485Z,100228.97
2019-01-19T11:14:59.389Z,100219.62
2019-01-19T11:17:25.477Z,100220.20
2019-01-19T11:19:51.518Z,100211.77
2019-01-19T11:22:17.787Z,100207.58
2019-01-19T11:24:43.926Z,100203.43
2019-01-19T11:27:10.070Z,100198.84
2019-01-19T11:29:36.380Z,100198.50
2019-01-19T11:32:02.615Z,100196.47
2019-01-19T11:34:28.651Z,100192.72
2019-01-19T11:36:54.859Z,100188.16
2019-01-19T11:39:20.787Z,100192.55
2019-01-19T11:41:46.813Z,100184.06
2019-01-19T11:44:12.958Z,100182.46
2019-01-19T11:46:39.077Z,100170.56
2019-01-19T11:49:05.214Z,100171.50
2019-01-19T11:51:31.557Z,100166.89
2019-01-19T11:53:57.676Z,100167.39
2019-01-19T11:56:23.613Z,100157.20
2019-01-19T11:58:49.686Z,100161.61
2019-01-19T12:01:15.813Z,100153.52
2019-01-19T12:03:41.870Z,100153.23
2019-01-19T12:06:08.254Z,100152.05
2019-01-19T12:08:34.498Z,100154.77
2019-01-19T12:11:00.420Z,100151.49
2019-01-19T12:13:26.625Z,100143.04
2019-01-19T12:15:52.643Z,100147.05
2019-01-19T12:18:18.669Z,100139.06
2019-01-19T12:20:44.883Z,100141.79
2019-01-19T12:23:11.040Z,100148.80
2019-01-19T12:25:37.126Z,100151.97
2019-01-19T12:28:03.940Z,100150.83
2019-01-19T12:30:31.191Z,100155.69
2019-01-19T12:32:57.304Z,100158.41
2019-01-19T12:35:23.523Z,100153.82
2019-01-19T12:37:49.573Z,100156.52
2019-01-19T12:40:20.777Z,100155.78
2019-01-19T12:42:48.330Z,100159.22
2019-01-19T12:45:17.786Z,100155.87
2019-01-19T12:47:43.921Z,100155.05
2019-01-19T12:50:21.745Z,100145.65
2019-01-19T12:52:47.872Z,100152.56
2019-01-19T12:55:14.207Z,100150.91
2019-01-19T12:57:40.395Z,100150.53
2019-01-19T13:00:12.674Z,100151.86
2019-01-19T13:02:38.760Z,100140.73
2019-01-19T13:05:20.863Z,100142.94
2019-01-19T13:07:46.982Z,100139.95
2019-01-19T13:10:19.404Z,100136.59
2019-01-19T13:12:46.165Z,100140.52
2019-01-19T13:15:32.226Z,100141.42
2019-01-19T13:18:04.917Z,100132.02
2019-01-19T13:20:46.769Z,100135.52
2019-01-19T13:23:22.388Z,100131.72
2019-01-19T13:26:04.230Z,100142.56
2019-01-19T13:28:40.339Z,100141.81
2019-01-19T13:31:15.987Z,100134.55
2019-01-19T13:34:02.585Z,100144.10
2019-01-19T13:36:43.949Z,100137.71
2019-01-19T13:39:13.879Z,100141.20
2019-01-19T13:42:01.840Z,100140.00
2019-01-19T13:44:48.338Z,100143.45
2019-01-19T13:47:24.123Z,100143.94
2019-01-19T13:50:12.014Z,100144.41
2019-01-19T13:52:58.388Z,100149.20
2019-01-19T13:55:58.673Z,100148.36
2019-01-19T13:58:37.244Z,100151.86
2019-01-19T14:01:28.165Z,100157.48
2019-01-19T14:04:12.986Z,100156.22
2019-01-19T14:06:42.863Z,100159.28
2019-01-19T14:09:12.567Z,100164.48
2019-01-19T14:11:45.339Z,100161.93
2019-01-19T14:14:30.264Z,100155.92
2019-01-19T14:17:22.250Z,100162.83
2019-01-19T14:20:26.680Z,100166.74
2019-01-19T14:22:59.695Z,100170.23
2019-01-19T14:25:29.441Z,100175.90
2019-01-19T14:28:24.918Z,100177.19
2019-01-19T14:31:18.605Z,100182.02
2019-01-19T14:33:51.168Z,100183.78
2019-01-19T14:36:32.847Z,100186.83
2019-01-19T14:39:14.591Z,100189.44
2019-01-19T14:41:56.582Z,100196.37
2019-01-19T14:44:26.410Z,100203.27
2019-01-19T14:46:59.146Z,100206.75
2019-01-19T14:50:02.336Z,100212.35
2019-01-19T14:52:37.753Z,100219.25
2019-01-19T14:55:16.403Z,100225.31
2019-01-19T14:58:01.329Z,100232.65
2019-01-19T15:00:34.317Z,100233.08
2019-01-19T15:03:04.048Z,100237.84
2019-01-19T15:05:48.955Z,100243.86
2019-01-19T15:08:18.684Z,100248.20
2019-01-19T15:10:57.612Z,100252.08
2019-01-19T15:13:42.326Z,100260.72
2019-01-19T15:16:30.427Z,100262.44
2019-01-19T15:19:16.930Z,100268.03
2019-01-19T15:22:18.427Z,100268.03
2019-01-19T15:24:53.988Z,100275.38
2019-01-19T15:27:39.196Z,100282.73
2019-01-19T15:30:30.034Z,100299.10
2019-01-19T15:33:14.900Z,100299.10
2019-01-19T15:35:56.148Z,100311.63
2019-01-19T15:38:40.960Z,100315.94
2019-01-19T15:41:13.332Z,100310.36
2019-01-19T15:43:55.202Z,100309.95
2019-01-19T15:46:41.358Z,100318.14
2019-01-19T15:49:23.489Z,100315.14
2019-01-19T15:51:56.401Z,100319.88
2019-01-19T15:54:31.665Z,100322.48
2019-01-19T15:57:25.380Z,100326.38
2019-01-19T15:59:55.356Z,100325.97
2019-01-19T16:02:40.863Z,100335.04
2019-01-19T16:05:30.361Z,100335.06
2019-01-19T16:08:06.053Z,100336.36
2019-01-19T16:10:47.694Z,100331.17
2019-01-19T16:13:29.291Z,100336.36
2019-01-19T16:16:04.988Z,100342.44
2019-01-19T16:18:43.656Z,100342.86
2019-01-19T16:21:31.812Z,100349.34
2019-01-19T16:24:10.366Z,100351.94
2019-01-19T16:26:52.238Z,100357.12
2019-01-19T16:29:27.581Z,100360.16
2019-01-19T16:32:23.161Z,100360.16
2019-01-19T16:35:13.888Z,100365.34
2019-01-19T16:37:49.686Z,100374.41
2019-01-19T16:40:34.320Z,100372.23
2019-01-19T16:43:10.011Z,100383.45
2019-01-19T16:45:51.390Z,100389.05
2019-01-19T16:48:30.235Z,100397.70
2019-01-19T16:51:05.978Z,100397.70
2019-01-19T16:53:57.692Z,100408.06
2019-01-19T16:56:39.275Z,100405.88
2019-01-19T16:59:09.265Z,100405.88
2019-01-19T17:02:10.749Z,100416.67
2019-01-19T17:04:56.700Z,100417.12
2019-01-19T17:07:46.851Z,100417.12
2019-01-19T17:10:22.149Z,100424.02
2019-01-19T17:13:03.200Z,100423.15
2019-01-19T17:15:44.718Z,100418.84
2019-01-19T17:18:14.466Z,100430.91
2019-01-19T17:21:09.783Z,100430.91
2019-01-19T17:23:51.364Z,100432.67
2019-01-19T17:26:33.157Z,100425.73
2019-01-19T17:29:08.711Z,100428.78
2019-01-19T17:31:38.606Z,100428.78
2019-01-19T17:34:34.255Z,100425.73
2019-01-19T17:37:33.641Z,100432.67
2019-01-19T17:40:26.252Z,100431.36
2019-01-19T17:42:59.016Z,100435.69
2019-01-19T17:45:31.780Z,100435.69
2019-01-19T17:48:19.454Z,100442.58
2019-01-19T17:51:07.422Z,100437.86
2019-01-19T17:53:59.941Z,100445.63
2019-01-19T17:56:35.336Z,100443.89
2019-01-19T17:59:08.141Z,100443.45
2019-01-19T18:02:12.628Z,100451.66
2019-01-19T18:05:03.460Z,100464.19
2019-01-19T18:07:36.168Z,100461.60
2019-01-19T18:10:14.940Z,100465.91
2019-01-19T18:12:50.067Z,100466.79
2019-01-19T18:15:25.560Z,100470.66
2019-01-19T18:18:04.278Z,100470.66
2019-01-19T18:20:36.596Z,100476.28
2019-01-19T18:23:27.487Z,100478.86
2019-01-19T18:26:12.323Z,100478.84
2019-01-19T18:29:01.239Z,100489.64
2019-01-19T18:31:56.881Z,100492.61
2019-01-19T18:34:49.324Z,100492.61
2019-01-19T18:37:30.688Z,100491.28
2019-01-19T18:40:30.544Z,100491.28
2019-01-19T18:43:03.377Z,100496.89
2019-01-19T18:45:39.165Z,100497.76
2019-01-19T18:48:12.605Z,100500.77
2019-01-19T18:50:54.295Z,100500.77
2019-01-19T18:53:27.242Z,100499.05
2019-01-19T18:56:15.571Z,100509.80
2019-01-19T18:58:57.368Z,100508.50
2019-01-19T19:01:33.222Z,100511.07
2019-01-19T19:04:11.906Z,100512.34
2019-01-19T19:07:01.334Z,100512.34
2019-01-19T19:09:40.031Z,100520.56
2019-01-19T19:12:27.793Z,100527.86
2019-01-19T19:15:06.569Z,100528.73
2019-01-19T19:17:39.077Z,100530.01
2019-01-19T19:20:27.217Z,100530.01
2019-01-19T19:22:59.657Z,100533.41
2019-01-19T19:25:35.315Z,100533.41
2019-01-19T19:28:36.567Z,100536.84
2019-01-19T19:31:06.480Z,100548.05
2019-01-19T19:33:54.400Z,100548.05
2019-01-19T19:36:43.728Z,100552.77
2019-01-19T19:39:29.899Z,100553.20
2019-01-19T19:42:17.888Z,100554.02
2019-01-19T19:45:21.253Z,100559.17
2019-01-19T19:47:54.086Z,100564.33
2019-01-19T19:50:49.262Z,100558.70
2019-01-19T19:53:15.353Z,100565.16
2019-01-19T19:55:41.073Z,100565.16
2019-01-19T19:58:07.092Z,100565.56
2019-01-19T20:00:33.640Z,100567.70
2019-01-19T20:02:59.669Z,100567.70
2019-01-19T20:05:25.706Z,100576.34
2019-01-19T20:07:51.834Z,100575.87
2019-01-19T20:10:17.758Z,100575.87
2019-01-19T20:12:43.883Z,100578.94
2019-01-19T20:15:10.409Z,100580.64
2019-01-19T20:17:36.320Z,100578.92
2019-01-19T20:20:05.472Z,100578.92
2019-01-19T20:22:31.741Z,100587.50
2019-01-19T20:24:57.790Z,100584.48
2019-01-19T20:27:23.732Z,100583.61
2019-01-19T20:29:49.829Z,100600.87
2019-01-19T20:32:15.824Z,100601.30
2019-01-19T20:34:41.880Z,100606.04
2019-01-19T20:37:08.015Z,100605.55
2019-01-19T20:39:34.059Z,100605.48
2019-01-19T20:41:59.985Z,100605.48
2019-01-19T20:44:26.007Z,100616.67
2019-01-19T20:46:52.055Z,100623.94
2019-01-19T20:49:17.986Z,100621.73
2019-01-19T20:51:44.187Z,100632.05
2019-01-19T20:54:10.248Z,100631.52
2019-01-19T20:56:36.192Z,100630.63
2019-01-19T20:59:02.512Z,100637.02
2019-01-19T21:01:28.659Z,100653.31
2019-01-19T21:03:54.838Z,100653.31
2019-01-19T21:06:20.880Z,100658.42
2019-01-19T21:08:46.916Z,100650.59
2019-01-19T21:11:12.852Z,100655.70
2019-01-19T21:13:38.954Z,100656.95
2019-01-19T21:16:05.154Z,100648.72
2019-01-19T21:18:31.172Z,100659.42
2019-01-19T21:20:57.168Z,100656.77
2019-01-19T21:23:23.298Z,100656.28
2019-01-19T21:25:49.339Z,100657.94
2019-01-19T21:28:15.445Z,100663.92
2019-01-19T21:30:41.496Z,100669.47
2019-01-19T21:33:07.549Z,100669.47
2019-01-19T21:35:33.799Z,100676.77
2019-01-19T21:37:59.742Z,100673.29
2019-01-19T21:40:25.695Z,100676.70
2019-01-19T21:42:51.788Z,100681.37
2019-01-19T21:45:19.844Z,100690.80
2019-01-19T21:47:45.991Z,100696.81
2019-01-19T21:50:12.278Z,100702.34
2019-01-19T21:52:38.210Z,100707.04
2019-01-19T21:55:06.838Z,100703.50
2019-01-19T21:57:33.070Z,100708.60
2019-01-19T21:59:59.097Z,100712.83
2019-01-19T22:02:25.034Z,100705.50
2019-01-19T22:04:51.119Z,100711.05
2019-01-19T22:07:17.047Z,100714.89
2019-01-19T22:09:43.124Z,100714.43
2019-01-19T22:12:09.733Z,100710.55
2019-01-19T22:14:35.737Z,100712.66
2019-01-19T22:17:01.635Z,100711.79
2019-01-19T22:19:27.880Z,100715.19
2019-01-19T22:21:53.929Z,100721.20
2019-01-19T22:24:19.955Z,100722.91
2019-01-19T22:26:48.031Z,100724.16
2019-01-19T22:29:13.938Z,100727.16
2019-01-19T22:31:39.976Z,100734.84
2019-01-19T22:34:07.332Z,100728.34
2019-01-19T22:36:33.250Z,100735.92
2019-01-19T22:38:59.168Z,100735.92
2019-01-19T22:41:25.145Z,100745.78
2019-01-19T22:43:51.084Z,100750.03
2019-01-19T22:46:17.097Z,100758.62
2019-01-19T22:48:43.294Z,100762.84
2019-01-19T22:51:11.307Z,100762.39
2019-01-19T22:53:37.386Z,100764.06
2019-01-19T22:56:03.695Z,100762.30
2019-01-19T22:58:29.702Z,100770.86
2019-01-19T23:01:04.191Z,100776.43
2019-01-19T23:03:31.311Z,100774.19
2019-01-19T23:05:57.497Z,100778.00
2019-01-19T23:08:23.606Z,100777.15
2019-01-19T23:10:49.694Z,100784.01
2019-01-19T23:13:15.846Z,100786.55
2019-01-19T23:15:41.876Z,100785.20
2019-01-19T23:18:07.957Z,100789.44
2019-01-19T23:20:33.939Z,100788.12
2019-01-19T23:22:59.890Z,100791.07
2019-01-19T23:25:25.928Z,100789.34
2019-01-19T23:27:51.892Z,100790.16
2019-01-19T23:30:18.021Z,100796.57
2019-01-19T23:32:44.166Z,100800.84
2019-01-19T23:35:10.266Z,100808.20
2019-01-19T23:37:36.207Z,100803.83
2019-01-19T23:40:05.185Z,100818.48
2019-01-19T23:42:31.090Z,100814.99
2019-01-19T23:44:57.108Z,100824.39
2019-01-19T23:47:23.180Z,100824.83
2019-01-19T23:49:49.127Z,100818.69
2019-01-19T23:52:15.140Z,100821.64
2019-01-19T23:54:41.378Z,100827.64
2019-01-19T23:57:07.285Z,100830.59
2019-01-19T23:59:33.185Z,100831.00
